Buxton, Oregon
Current Conditions -  °F | °C
As of 2:53 PM on Saturday 25 Oct 2014 (Local Time) from KHIO Reporting Station
Light Rain Light Rain  
Wind Chill: 61°   Ceiling: 4300
Heat Index: 61°   Visibility: 10mi
Dew Point: 53°   Wind: 23mph
Humidity: 75%   Direction: 170°S
Pressure: 29.35"   Gusts: 36mph
Location:  45.69°N, 123.19°W
Report Text: KHIO 252153Z 17020G31KT 10SM -RA FEW029 BKN043 OVC055 16/12 A2935 RMK AO2 PK WND 17035/2126 RAB11E22B48 SLP939 P0001 T01610117
Loading
Personal Weather Stations






























Interactive Weather Map
Tropical Storm Tracking
New forecast layout! Learn more

10-Day Weather Forecast

Advertisements
Track Severe Weather on mobile